Time,TemperatureF,DewpointF,PressureIn,WindDirection,WindDirectionDegrees,WindSpeedMPH,WindSpeedGustMPH,Humidity,HourlyPrecipIn,Conditions,Clouds,dailyrainin,SoftwareType,DateUTC
2013-05-31 00:01:00,46.0,20.0,30.11,North,358,7.0,9.0,35,0.00,,,0.00,,2013-05-31 06:01:00,
2013-05-31 00:11:00,46.0,20.0,30.11,North,358,7.0,9.0,35,0.00,,,0.00,,2013-05-31 06:11:00,
2013-05-31 00:21:00,46.0,21.0,30.11,North,349,6.0,8.0,36,0.00,,,0.00,,2013-05-31 06:21:00,
2013-05-31 00:31:00,45.0,20.0,30.11,North,2,5.0,5.0,36,0.00,,,0.00,,2013-05-31 06:31:00,
2013-05-31 00:41:00,44.0,19.0,30.11,NW,324,6.0,9.0,37,0.00,,,0.00,,2013-05-31 06:41:00,
2013-05-31 00:51:00,44.0,19.0,30.11,NW,324,6.0,9.0,37,0.00,,,0.00,,2013-05-31 06:51:00,
2013-05-31 01:02:00,44.0,19.0,30.11,NNW,345,5.0,7.0,36,0.00,,,0.00,,2013-05-31 07:02:00,
2013-05-31 01:11:00,44.0,19.0,30.11,North,355,5.0,7.0,36,0.00,,,0.00,,2013-05-31 07:11:00,
2013-05-31 01:21:00,44.0,19.0,30.11,North,355,5.0,7.0,36,0.00,,,0.00,,2013-05-31 07:21:00,
2013-05-31 01:32:00,44.0,19.0,30.11,North,8,5.0,8.0,37,0.00,,,0.00,,2013-05-31 07:32:00,
2013-05-31 01:41:00,44.0,19.0,30.11,North,8,5.0,8.0,37,0.00,,,0.00,,2013-05-31 07:41:00,
2013-05-31 01:52:00,44.0,19.0,30.11,North,5,7.0,9.0,37,0.00,,,0.00,,2013-05-31 07:52:00,
2013-05-31 02:01:00,43.0,19.0,30.11,North,0,6.0,8.0,38,0.00,,,0.00,,2013-05-31 08:01:00,
2013-05-31 02:11:00,43.0,19.0,30.11,North,0,6.0,8.0,38,0.00,,,0.00,,2013-05-31 08:11:00,
2013-05-31 02:21:00,42.0,19.0,30.11,North,0,6.0,10.0,39,0.00,,,0.00,,2013-05-31 08:21:00,
2013-05-31 02:31:00,42.0,19.0,30.10,North,359,6.0,8.0,39,0.00,,,0.00,,2013-05-31 08:31:00,
2013-05-31 02:41:00,42.0,19.0,30.10,North,359,6.0,8.0,39,0.00,,,0.00,,2013-05-31 08:41:00,
2013-05-31 02:51:00,42.0,18.0,30.10,North,359,5.0,9.0,38,0.00,,,0.00,,2013-05-31 08:51:00,
2013-05-31 03:01:00,42.0,19.0,30.10,NNW,340,3.0,6.0,39,0.00,,,0.00,,2013-05-31 09:01:00,
2013-05-31 03:11:00,42.0,19.0,30.10,NNW,340,3.0,6.0,39,0.00,,,0.00,,2013-05-31 09:11:00,
2013-05-31 03:21:00,42.0,19.0,30.10,North,357,6.0,7.0,39,0.00,,,0.00,,2013-05-31 09:21:00,
2013-05-31 03:32:00,41.0,19.0,30.11,North,356,3.0,5.0,40,0.00,,,0.00,,2013-05-31 09:32:00,
2013-05-31 03:42:00,41.0,19.0,30.11,North,356,3.0,5.0,40,0.00,,,0.00,,2013-05-31 09:42:00,
2013-05-31 03:53:00,40.0,18.0,30.10,North,6,5.0,9.0,40,0.00,,,0.00,,2013-05-31 09:53:00,
2013-05-31 04:02:00,41.0,16.0,30.10,North,353,6.0,9.0,36,0.00,,,0.00,,2013-05-31 10:02:00,
2013-05-31 04:12:00,41.0,17.0,30.10,North,358,6.0,7.0,37,0.00,,,0.00,,2013-05-31 10:12:00,
2013-05-31 04:22:00,41.0,17.0,30.10,North,358,6.0,7.0,37,0.00,,,0.00,,2013-05-31 10:22:00,
2013-05-31 04:32:00,40.0,18.0,30.11,North,356,3.0,3.0,40,0.00,,,0.00,,2013-05-31 10:32:00,
2013-05-31 04:42:00,40.0,18.0,30.11,North,356,3.0,3.0,40,0.00,,,0.00,,2013-05-31 10:42:00,
2013-05-31 04:52:00,39.0,16.0,30.11,North,349,5.0,5.0,39,0.00,,,0.00,,2013-05-31 10:52:00,
2013-05-31 05:01:00,40.0,15.0,30.11,North,350,3.0,3.0,36,0.00,,,0.00,,2013-05-31 11:01:00,
2013-05-31 05:11:00,40.0,15.0,30.11,North,350,3.0,3.0,36,0.00,,,0.00,,2013-05-31 11:11:00,
2013-05-31 05:22:00,41.0,15.0,30.11,North,358,3.0,3.0,35,0.00,,,0.00,,2013-05-31 11:22:00,
2013-05-31 05:32:00,41.0,15.0,30.11,North,353,5.0,6.0,34,0.00,,,0.00,,2013-05-31 11:32:00,
2013-05-31 05:41:00,41.0,15.0,30.11,North,353,5.0,6.0,34,0.00,,,0.00,,2013-05-31 11:41:00,
2013-05-31 05:52:00,42.0,15.0,30.11,North,5,5.0,6.0,33,0.00,,,0.00,,2013-05-31 11:52:00,
2013-05-31 06:01:00,42.0,15.0,30.11,NNW,345,5.0,6.0,33,0.00,,,0.00,,2013-05-31 12:01:00,
2013-05-31 06:11:00,42.0,15.0,30.11,NNW,345,5.0,6.0,33,0.00,,,0.00,,2013-05-31 12:11:00,
2013-05-31 06:21:00,41.0,15.0,30.11,NW,317,2.0,3.0,34,0.00,,,0.00,,2013-05-31 12:21:00,
2013-05-31 06:31:00,43.0,16.0,30.12,NW,324,3.0,3.0,33,0.00,,,0.00,,2013-05-31 12:31:00,
2013-05-31 06:41:00,43.0,16.0,30.12,NW,324,3.0,3.0,33,0.00,,,0.00,,2013-05-31 12:41:00,
2013-05-31 06:51:00,43.0,17.0,30.12,North,0,5.0,6.0,34,0.00,,,0.00,,2013-05-31 12:51:00,
2013-05-31 07:01:00,45.0,18.0,30.13,NNW,329,3.0,12.0,33,0.00,,,0.00,,2013-05-31 13:01:00,
2013-05-31 07:11:00,45.0,18.0,30.13,NNW,329,3.0,12.0,33,0.00,,,0.00,,2013-05-31 13:11:00,
2013-05-31 07:21:00,46.0,17.0,30.14,North,5,5.0,8.0,31,0.00,,,0.00,,2013-05-31 13:21:00,
2013-05-31 07:32:00,46.0,19.0,30.14,North,358,3.0,5.0,33,0.00,,,0.00,,2013-05-31 13:32:00,
2013-05-31 07:42:00,46.0,19.0,30.14,North,358,3.0,5.0,33,0.00,,,0.00,,2013-05-31 13:42:00,
2013-05-31 07:52:00,46.0,19.0,30.14,North,353,1.0,3.0,33,0.00,,,0.00,,2013-05-31 13:52:00,
2013-05-31 08:02:00,51.0,18.0,30.14,NNW,328,3.0,5.0,27,0.00,,,0.00,,2013-05-31 14:02:00,
2013-05-31 08:11:00,51.0,18.0,30.14,NNW,328,3.0,5.0,27,0.00,,,0.00,,2013-05-31 14:11:00,
2013-05-31 08:21:00,53.0,20.0,30.14,North,7,5.0,12.0,27,0.00,,,0.00,,2013-05-31 14:21:00,
2013-05-31 08:31:00,55.0,22.0,30.15,North,5,3.0,5.0,27,0.00,,,0.00,,2013-05-31 14:31:00,
2013-05-31 08:52:00,56.0,22.0,30.15,North,5,1.0,5.0,26,0.00,,,0.00,,2013-05-31 14:52:00,
2013-05-31 09:01:00,56.0,21.0,30.15,North,9,3.0,8.0,25,0.00,,,0.00,,2013-05-31 15:01:00,
2013-05-31 09:21:00,57.0,21.0,30.16,NE,35,0.0,2.0,24,0.00,,,0.00,,2013-05-31 15:21:00,
2013-05-31 09:33:00,56.0,20.0,30.16,NNE,18,9.0,12.0,24,0.00,,,0.00,,2013-05-31 15:33:00,
2013-05-31 09:42:00,56.0,20.0,30.16,NNE,18,9.0,12.0,24,0.00,,,0.00,,2013-05-31 15:42:00,
2013-05-31 09:53:00,55.0,19.0,30.16,NNW,347,10.0,20.0,24,0.00,,,0.00,,2013-05-31 15:53:00,
2013-05-31 10:03:00,56.0,20.0,30.16,North,10,8.0,15.0,24,0.00,,,0.00,,2013-05-31 16:03:00,
2013-05-31 10:12:00,56.0,19.0,30.15,NNE,18,6.0,8.0,23,0.00,,,0.00,,2013-05-31 16:12:00,
2013-05-31 10:22:00,56.0,19.0,30.15,NNE,18,6.0,8.0,23,0.00,,,0.00,,2013-05-31 16:22:00,
2013-05-31 10:33:00,57.0,17.0,30.15,NNE,23,8.0,16.0,21,0.00,,,0.00,,2013-05-31 16:33:00,
2013-05-31 10:41:00,57.0,17.0,30.15,NNE,23,8.0,16.0,21,0.00,,,0.00,,2013-05-31 16:41:00,
2013-05-31 10:52:00,59.0,17.0,30.14,NNE,12,10.0,17.0,19,0.00,,,0.00,,2013-05-31 16:52:00,
2013-05-31 11:02:00,57.0,10.0,30.15,NNE,23,12.0,20.0,15,0.00,,,0.00,,2013-05-31 17:02:00,
2013-05-31 11:22:00,56.0,10.0,30.15,North,356,14.0,16.0,16,0.00,,,0.00,,2013-05-31 17:22:00,
2013-05-31 11:31:00,57.0,10.0,30.16,North,353,6.0,10.0,15,0.00,,,0.00,,2013-05-31 17:31:00,
2013-05-31 11:42:00,57.0,10.0,30.16,North,353,6.0,10.0,15,0.00,,,0.00,,2013-05-31 17:42:00,
2013-05-31 11:52:00,59.0,11.0,30.15,NNE,13,9.0,20.0,15,0.00,,,0.00,,2013-05-31 17:52:00,
2013-05-31 12:01:00,59.0,10.0,30.15,North,10,12.0,21.0,14,0.00,,,0.00,,2013-05-31 18:01:00,
2013-05-31 12:11:00,59.0,10.0,30.15,North,10,12.0,21.0,14,0.00,,,0.00,,2013-05-31 18:11:00,
2013-05-31 12:21:00,60.0,12.0,30.16,NE,43,8.0,8.0,15,0.00,,,0.00,,2013-05-31 18:21:00,
2013-05-31 12:31:00,61.0,13.0,30.15,NE,51,6.0,13.0,15,0.00,,,0.00,,2013-05-31 18:31:00,
2013-05-31 12:41:00,61.0,13.0,30.15,NE,51,6.0,13.0,15,0.00,,,0.00,,2013-05-31 18:41:00,
2013-05-31 12:52:00,62.0,11.0,30.16,North,350,12.0,20.0,13,0.00,,,0.00,,2013-05-31 18:52:00,
2013-05-31 13:01:00,60.0,12.0,30.16,NNW,345,10.0,14.0,15,0.00,,,0.00,,2013-05-31 19:01:00,
2013-05-31 13:11:00,60.0,12.0,30.16,NNW,345,10.0,14.0,15,0.00,,,0.00,,2013-05-31 19:11:00,
2013-05-31 13:21:00,60.0,14.0,30.16,NNE,16,10.0,20.0,16,0.00,,,0.00,,2013-05-31 19:21:00,
2013-05-31 13:31:00,63.0,16.0,30.15,NE,47,2.0,20.0,16,0.00,,,0.00,,2013-05-31 19:31:00,
2013-05-31 13:41:00,63.0,13.0,30.15,NNE,21,7.0,13.0,14,0.00,,,0.00,,2013-05-31 19:41:00,
2013-05-31 13:52:00,63.0,13.0,30.15,NNE,21,7.0,13.0,14,0.00,,,0.00,,2013-05-31 19:52:00,
2013-05-31 14:01:00,64.0,17.0,30.15,NW,325,5.0,8.0,16,0.00,,,0.00,,2013-05-31 20:01:00,
2013-05-31 14:11:00,64.0,17.0,30.15,NW,325,5.0,8.0,16,0.00,,,0.00,,2013-05-31 20:11:00,
2013-05-31 14:22:00,64.0,15.0,30.15,NNE,15,5.0,9.0,15,0.00,,,0.00,,2013-05-31 20:22:00,
2013-05-31 14:31:00,62.0,15.0,30.15,NE,43,6.0,6.0,16,0.00,,,0.00,,2013-05-31 20:31:00,
2013-05-31 14:41:00,62.0,15.0,30.15,NE,43,6.0,6.0,16,0.00,,,0.00,,2013-05-31 20:41:00,
2013-05-31 14:51:00,62.0,15.0,30.15,NNE,13,15.0,26.0,16,0.00,,,0.00,,2013-05-31 20:51:00,
2013-05-31 15:01:00,62.0,15.0,30.15,North,356,9.0,21.0,16,0.00,,,0.00,,2013-05-31 21:01:00,
2013-05-31 15:11:00,62.0,15.0,30.15,North,356,9.0,21.0,16,0.00,,,0.00,,2013-05-31 21:11:00,
2013-05-31 15:22:00,63.0,15.0,30.15,NNE,32,7.0,13.0,15,0.00,,,0.00,,2013-05-31 21:22:00,
2013-05-31 15:32:00,65.0,15.0,30.15,WSW,254,7.0,12.0,14,0.00,,,0.00,,2013-05-31 21:32:00,
2013-05-31 15:42:00,66.0,14.0,30.15,East,83,2.0,14.0,13,0.00,,,0.00,,2013-05-31 21:42:00,
2013-05-31 15:53:00,66.0,14.0,30.15,East,83,2.0,14.0,13,0.00,,,0.00,,2013-05-31 21:53:00,
2013-05-31 16:02:00,64.0,14.0,30.15,NNE,18,9.0,18.0,14,0.00,,,0.00,,2013-05-31 22:02:00,
2013-05-31 16:12:00,64.0,14.0,30.15,NNE,18,9.0,18.0,14,0.00,,,0.00,,2013-05-31 22:12:00,
2013-05-31 16:22:00,64.0,14.0,30.15,NNE,33,7.0,15.0,14,0.00,,,0.00,,2013-05-31 22:22:00,
2013-05-31 16:33:00,64.0,14.0,30.16,North,8,10.0,16.0,14,0.00,,,0.00,,2013-05-31 22:33:00,
2013-05-31 16:41:00,66.0,14.0,30.15,NNE,27,10.0,15.0,13,0.00,,,0.00,,2013-05-31 22:41:00,
2013-05-31 16:52:00,66.0,14.0,30.15,NNE,27,10.0,15.0,13,0.00,,,0.00,,2013-05-31 22:52:00,
2013-05-31 17:02:00,66.0,15.0,30.15,North,354,10.0,16.0,14,0.00,,,0.00,,2013-05-31 23:02:00,
2013-05-31 17:12:00,66.0,15.0,30.15,North,354,10.0,16.0,14,0.00,,,0.00,,2013-05-31 23:12:00,
2013-05-31 17:21:00,66.0,15.0,30.16,NNW,329,6.0,7.0,14,0.00,,,0.00,,2013-05-31 23:21:00,
2013-05-31 17:32:00,66.0,15.0,30.16,North,6,10.0,15.0,14,0.00,,,0.00,,2013-05-31 23:32:00,
2013-05-31 17:42:00,67.0,16.0,30.16,ENE,58,6.0,7.0,14,0.00,,,0.00,,2013-05-31 23:42:00,
2013-05-31 17:52:00,67.0,16.0,30.16,ENE,58,6.0,7.0,14,0.00,,,0.00,,2013-05-31 23:52:00,
2013-05-31 18:01:00,68.0,15.0,30.16,North,350,5.0,17.0,13,0.00,,,0.00,,2013-06-01 00:01:00,
2013-05-31 18:11:00,67.0,15.0,30.17,NNW,345,7.0,20.0,13,0.00,,,0.00,,2013-06-01 00:11:00,
2013-05-31 18:31:00,66.0,14.0,30.17,NNE,30,2.0,8.0,13,0.00,,,0.00,,2013-06-01 00:31:00,
2013-05-31 18:41:00,67.0,15.0,30.17,North,0,6.0,12.0,13,0.00,,,0.00,,2013-06-01 00:41:00,
2013-05-31 19:01:00,66.0,14.0,30.18,NNE,12,6.0,12.0,13,0.00,,,0.00,,2013-06-01 01:01:00,
2013-05-31 19:11:00,65.0,13.0,30.18,NW,317,6.0,15.0,13,0.00,,,0.00,,2013-06-01 01:11:00,
2013-05-31 19:21:00,65.0,13.0,30.18,NW,317,6.0,15.0,13,0.00,,,0.00,,2013-06-01 01:21:00,
2013-05-31 19:31:00,56.0,12.0,30.18,North,6,6.0,12.0,17,0.00,,,0.00,,2013-06-01 01:31:00,
2013-05-31 19:41:00,54.0,11.0,30.18,NNW,342,7.0,15.0,18,0.00,,,0.00,,2013-06-01 01:41:00,
2013-05-31 19:52:00,54.0,11.0,30.18,NNW,342,7.0,15.0,18,0.00,,,0.00,,2013-06-01 01:52:00,
2013-05-31 20:01:00,53.0,12.0,30.19,NNW,339,13.0,18.0,19,0.00,,,0.00,,2013-06-01 02:01:00,
2013-05-31 20:11:00,52.0,11.0,30.19,NNW,340,6.0,15.0,19,0.00,,,0.00,,2013-06-01 02:11:00,
2013-05-31 20:21:00,52.0,11.0,30.19,NNW,340,6.0,15.0,19,0.00,,,0.00,,2013-06-01 02:21:00,
2013-05-31 20:31:00,51.0,11.0,30.19,North,351,8.0,22.0,20,0.00,,,0.00,,2013-06-01 02:31:00,
2013-05-31 20:41:00,51.0,12.0,30.20,NNW,348,9.0,12.0,21,0.00,,,0.00,,2013-06-01 02:41:00,
2013-05-31 20:51:00,51.0,12.0,30.20,NNW,348,9.0,12.0,21,0.00,,,0.00,,2013-06-01 02:51:00,
2013-05-31 21:01:00,50.0,12.0,30.20,NNW,332,9.0,12.0,21,0.00,,,0.00,,2013-06-01 03:01:00,
2013-05-31 21:11:00,50.0,12.0,30.20,North,351,7.0,10.0,21,0.00,,,0.00,,2013-06-01 03:11:00,
2013-05-31 21:21:00,50.0,12.0,30.20,North,351,7.0,10.0,21,0.00,,,0.00,,2013-06-01 03:21:00,
2013-05-31 21:33:00,49.0,11.0,30.21,North,4,6.0,14.0,21,0.00,,,0.00,,2013-06-01 03:33:00,
2013-05-31 21:43:00,49.0,11.0,30.22,North,359,8.0,10.0,21,0.00,,,0.00,,2013-06-01 03:43:00,
2013-05-31 21:53:00,49.0,11.0,30.22,North,359,8.0,10.0,21,0.00,,,0.00,,2013-06-01 03:53:00,
2013-05-31 22:02:00,48.0,10.0,30.22,North,354,6.0,8.0,21,0.00,,,0.00,,2013-06-01 04:02:00,
2013-05-31 22:12:00,48.0,11.0,30.22,NNW,344,3.0,9.0,22,0.00,,,0.00,,2013-06-01 04:12:00,
2013-05-31 22:22:00,48.0,11.0,30.22,NNW,344,3.0,9.0,22,0.00,,,0.00,,2013-06-01 04:22:00,
2013-05-31 22:33:00,49.0,11.0,30.23,North,354,6.0,9.0,21,0.00,,,0.00,,2013-06-01 04:33:00,
2013-05-31 22:42:00,48.0,10.0,30.23,NW,317,7.0,12.0,21,0.00,,,0.00,,2013-06-01 04:42:00,
2013-05-31 22:53:00,48.0,10.0,30.23,NW,317,7.0,12.0,21,0.00,,,0.00,,2013-06-01 04:53:00,
2013-05-31 23:02:00,48.0,11.0,30.23,NW,320,7.0,12.0,22,0.00,,,0.00,,2013-06-01 05:02:00,
2013-05-31 23:12:00,48.0,11.0,30.23,NW,320,7.0,12.0,22,0.00,,,0.00,,2013-06-01 05:12:00,
2013-05-31 23:22:00,47.0,10.0,30.23,WNW,301,5.0,7.0,22,0.00,,,0.00,,2013-06-01 05:22:00,
2013-05-31 23:32:00,46.0,9.0,30.23,NW,317,3.0,5.0,22,0.00,,,0.00,,2013-06-01 05:32:00,
2013-05-31 23:42:00,46.0,9.0,30.23,NNW,333,3.0,5.0,22,0.00,,,0.00,,2013-06-01 05:42:00,
2013-05-31 23:52:00,46.0,9.0,30.23,NNW,333,3.0,5.0,22,0.00,,,0.00,,2013-06-01 05:52:00,